sensor_id;sensor_type;location;lat;lon;timestamp;P1;durP1;ratioP1;P2;durP2;ratioP2
51489;SDS011;57752;53.574;9.736;2023-04-03T00:04:48;14.60;;;4.40;;
51489;SDS011;57752;53.574;9.736;2023-04-03T00:09:48;16.20;;;4.68;;
51489;SDS011;57752;53.574;9.736;2023-04-03T00:14:48;14.23;;;3.80;;
51489;SDS011;57752;53.574;9.736;2023-04-03T00:19:48;11.82;;;3.90;;
51489;SDS011;57752;53.574;9.736;2023-04-03T00:24:48;11.90;;;4.18;;
51489;SDS011;57752;53.574;9.736;2023-04-03T00:29:48;15.63;;;5.13;;
51489;SDS011;57752;53.574;9.736;2023-04-03T00:34:49;12.35;;;4.20;;
51489;SDS011;57752;53.574;9.736;2023-04-03T00:39:49;12.40;;;3.97;;
51489;SDS011;57752;53.574;9.736;2023-04-03T00:49:53;15.38;;;4.25;;
51489;SDS011;57752;53.574;9.736;2023-04-03T00:54:54;12.32;;;4.38;;
51489;SDS011;57752;53.574;9.736;2023-04-03T01:04:56;17.83;;;4.68;;
51489;SDS011;57752;53.574;9.736;2023-04-03T01:09:57;13.75;;;4.20;;
51489;SDS011;57752;53.574;9.736;2023-04-03T01:14:59;12.95;;;4.22;;
51489;SDS011;57752;53.574;9.736;2023-04-03T01:25:02;13.63;;;4.30;;
51489;SDS011;57752;53.574;9.736;2023-04-03T01:30:03;14.60;;;4.75;;
51489;SDS011;57752;53.574;9.736;2023-04-03T01:35:03;14.32;;;4.40;;
51489;SDS011;57752;53.574;9.736;2023-04-03T01:40:04;14.10;;;4.53;;
51489;SDS011;57752;53.574;9.736;2023-04-03T01:45:05;18.52;;;4.53;;
51489;SDS011;57752;53.574;9.736;2023-04-03T01:50:05;17.48;;;4.63;;
51489;SDS011;57752;53.574;9.736;2023-04-03T01:55:06;12.70;;;4.00;;
51489;SDS011;57752;53.574;9.736;2023-04-03T02:00:06;12.65;;;4.18;;
51489;SDS011;57752;53.574;9.736;2023-04-03T02:05:07;13.02;;;4.82;;
51489;SDS011;57752;53.574;9.736;2023-04-03T02:10:08;14.18;;;4.75;;
51489;SDS011;57752;53.574;9.736;2023-04-03T02:15:08;15.40;;;4.65;;
51489;SDS011;57752;53.574;9.736;2023-04-03T02:20:09;15.48;;;4.75;;
51489;SDS011;57752;53.574;9.736;2023-04-03T02:25:09;11.05;;;4.22;;
51489;SDS011;57752;53.574;9.736;2023-04-03T02:30:10;12.88;;;4.43;;
51489;SDS011;57752;53.574;9.736;2023-04-03T02:35:11;17.85;;;4.50;;
51489;SDS011;57752;53.574;9.736;2023-04-03T02:40:11;15.63;;;4.60;;
51489;SDS011;57752;53.574;9.736;2023-04-03T02:45:11;16.83;;;4.43;;
51489;SDS011;57752;53.574;9.736;2023-04-03T02:50:11;15.25;;;4.45;;
51489;SDS011;57752;53.574;9.736;2023-04-03T02:55:13;13.85;;;4.63;;
51489;SDS011;57752;53.574;9.736;2023-04-03T03:00:13;15.38;;;4.57;;
51489;SDS011;57752;53.574;9.736;2023-04-03T03:05:14;15.85;;;4.60;;
51489;SDS011;57752;53.574;9.736;2023-04-03T03:10:14;14.68;;;4.88;;
51489;SDS011;57752;53.574;9.736;2023-04-03T03:15:15;19.33;;;4.93;;
51489;SDS011;57752;53.574;9.736;2023-04-03T03:20:17;12.63;;;4.77;;
51489;SDS011;57752;53.574;9.736;2023-04-03T03:25:17;15.40;;;4.75;;
51489;SDS011;57752;53.574;9.736;2023-04-03T03:30:17;18.08;;;5.43;;
51489;SDS011;57752;53.574;9.736;2023-04-03T03:35:17;12.98;;;4.45;;
51489;SDS011;57752;53.574;9.736;2023-04-03T03:40:17;15.70;;;4.80;;
51489;SDS011;57752;53.574;9.736;2023-04-03T03:45:18;13.85;;;4.63;;
51489;SDS011;57752;53.574;9.736;2023-04-03T03:50:18;17.20;;;4.95;;
51489;SDS011;57752;53.574;9.736;2023-04-03T03:55:18;15.93;;;5.15;;
51489;SDS011;57752;53.574;9.736;2023-04-03T04:00:18;14.77;;;5.07;;
51489;SDS011;57752;53.574;9.736;2023-04-03T04:05:18;17.45;;;5.80;;
51489;SDS011;57752;53.574;9.736;2023-04-03T04:10:18;15.50;;;5.13;;
51489;SDS011;57752;53.574;9.736;2023-04-03T04:15:19;15.02;;;5.63;;
51489;SDS011;57752;53.574;9.736;2023-04-03T04:20:21;15.43;;;5.70;;
51489;SDS011;57752;53.574;9.736;2023-04-03T04:25:21;17.23;;;5.80;;
51489;SDS011;57752;53.574;9.736;2023-04-03T04:30:21;17.50;;;6.38;;
51489;SDS011;57752;53.574;9.736;2023-04-03T04:35:21;21.77;;;7.40;;
51489;SDS011;57752;53.574;9.736;2023-04-03T04:40:22;22.73;;;6.80;;
51489;SDS011;57752;53.574;9.736;2023-04-03T04:45:22;18.45;;;6.75;;
51489;SDS011;57752;53.574;9.736;2023-04-03T04:50:22;16.92;;;6.10;;
51489;SDS011;57752;53.574;9.736;2023-04-03T04:55:22;21.45;;;7.40;;
51489;SDS011;57752;53.574;9.736;2023-04-03T05:00:22;18.83;;;6.88;;
51489;SDS011;57752;53.574;9.736;2023-04-03T05:05:23;17.85;;;6.70;;
51489;SDS011;57752;53.574;9.736;2023-04-03T05:10:23;16.37;;;7.07;;
51489;SDS011;57752;53.574;9.736;2023-04-03T05:15:23;22.10;;;7.47;;
51489;SDS011;57752;53.574;9.736;2023-04-03T05:20:23;20.58;;;7.50;;
51489;SDS011;57752;53.574;9.736;2023-04-03T05:25:24;17.25;;;6.78;;
51489;SDS011;57752;53.574;9.736;2023-04-03T05:30:24;19.23;;;7.38;;
51489;SDS011;57752;53.574;9.736;2023-04-03T05:35:24;18.90;;;7.18;;
51489;SDS011;57752;53.574;9.736;2023-04-03T05:40:24;17.25;;;7.35;;
51489;SDS011;57752;53.574;9.736;2023-04-03T05:45:25;16.38;;;6.95;;
51489;SDS011;57752;53.574;9.736;2023-04-03T05:50:25;20.73;;;8.80;;
51489;SDS011;57752;53.574;9.736;2023-04-03T05:55:25;24.02;;;8.75;;
51489;SDS011;57752;53.574;9.736;2023-04-03T06:00:25;26.05;;;11.65;;
51489;SDS011;57752;53.574;9.736;2023-04-03T06:05:27;28.90;;;13.27;;
51489;SDS011;57752;53.574;9.736;2023-04-03T06:10:27;36.50;;;16.60;;
51489;SDS011;57752;53.574;9.736;2023-04-03T06:15:27;52.05;;;25.98;;
51489;SDS011;57752;53.574;9.736;2023-04-03T06:20:28;33.30;;;15.73;;
51489;SDS011;57752;53.574;9.736;2023-04-03T06:25:28;35.15;;;16.35;;
51489;SDS011;57752;53.574;9.736;2023-04-03T06:30:28;29.30;;;13.32;;
51489;SDS011;57752;53.574;9.736;2023-04-03T06:35:28;21.50;;;11.45;;
51489;SDS011;57752;53.574;9.736;2023-04-03T06:40:30;18.63;;;8.55;;
51489;SDS011;57752;53.574;9.736;2023-04-03T06:45:30;19.20;;;8.40;;
51489;SDS011;57752;53.574;9.736;2023-04-03T06:50:31;21.40;;;7.82;;
51489;SDS011;57752;53.574;9.736;2023-04-03T06:55:31;21.48;;;7.10;;
51489;SDS011;57752;53.574;9.736;2023-04-03T07:00:31;21.00;;;5.53;;
51489;SDS011;57752;53.574;9.736;2023-04-03T07:05:32;15.23;;;5.30;;
51489;SDS011;57752;53.574;9.736;2023-04-03T07:10:32;18.15;;;5.82;;
51489;SDS011;57752;53.574;9.736;2023-04-03T07:15:32;15.90;;;4.80;;
51489;SDS011;57752;53.574;9.736;2023-04-03T07:20:33;15.50;;;3.80;;
51489;SDS011;57752;53.574;9.736;2023-04-03T07:25:33;13.73;;;4.20;;
51489;SDS011;57752;53.574;9.736;2023-04-03T07:30:33;12.15;;;3.75;;
51489;SDS011;57752;53.574;9.736;2023-04-03T07:35:34;14.75;;;3.75;;
51489;SDS011;57752;53.574;9.736;2023-04-03T07:40:34;14.15;;;3.60;;
51489;SDS011;57752;53.574;9.736;2023-04-03T07:45:35;10.13;;;3.30;;
51489;SDS011;57752;53.574;9.736;2023-04-03T07:50:35;11.23;;;2.92;;
51489;SDS011;57752;53.574;9.736;2023-04-03T07:55:36;13.50;;;3.50;;
51489;SDS011;57752;53.574;9.736;2023-04-03T08:00:42;10.52;;;3.08;;
51489;SDS011;57752;53.574;9.736;2023-04-03T08:05:47;13.23;;;3.45;;
51489;SDS011;57752;53.574;9.736;2023-04-03T08:10:48;13.05;;;3.25;;
51489;SDS011;57752;53.574;9.736;2023-04-03T08:15:48;12.30;;;3.50;;
51489;SDS011;57752;53.574;9.736;2023-04-03T08:20:48;11.55;;;2.92;;
51489;SDS011;57752;53.574;9.736;2023-04-03T08:25:49;9.73;;;2.92;;
51489;SDS011;57752;53.574;9.736;2023-04-03T08:30:49;10.52;;;2.70;;
51489;SDS011;57752;53.574;9.736;2023-04-03T08:35:49;9.55;;;2.67;;
51489;SDS011;57752;53.574;9.736;2023-04-03T08:46:40;8.32;;;2.33;;
51489;SDS011;57752;53.574;9.736;2023-04-03T08:51:41;15.65;;;2.47;;
51489;SDS011;57752;53.574;9.736;2023-04-03T08:56:46;7.63;;;2.67;;
51489;SDS011;57752;53.574;9.736;2023-04-03T09:01:46;7.03;;;1.98;;
51489;SDS011;57752;53.574;9.736;2023-04-03T09:06:49;8.27;;;2.10;;
51489;SDS011;57752;53.574;9.736;2023-04-03T09:22:31;8.38;;;2.20;;
51489;SDS011;57752;53.574;9.736;2023-04-03T09:27:32;10.27;;;2.55;;
51489;SDS011;57752;53.574;9.736;2023-04-03T09:32:33;9.18;;;2.30;;
51489;SDS011;57752;53.574;9.736;2023-04-03T09:37:39;11.10;;;2.45;;
51489;SDS011;57752;53.574;9.736;2023-04-03T09:42:40;8.48;;;2.60;;
51489;SDS011;57752;53.574;9.736;2023-04-03T09:47:41;7.65;;;2.10;;
51489;SDS011;57752;53.574;9.736;2023-04-03T09:52:42;8.40;;;2.00;;
51489;SDS011;57752;53.574;9.736;2023-04-03T09:57:44;9.47;;;2.37;;
51489;SDS011;57752;53.574;9.736;2023-04-03T10:02:45;8.85;;;2.30;;
51489;SDS011;57752;53.574;9.736;2023-04-03T10:07:49;11.48;;;2.88;;
51489;SDS011;57752;53.574;9.736;2023-04-03T10:13:10;10.25;;;2.33;;
51489;SDS011;57752;53.574;9.736;2023-04-03T10:28:57;8.77;;;2.30;;
51489;SDS011;57752;53.574;9.736;2023-04-03T10:34:05;11.20;;;2.40;;
51489;SDS011;57752;53.574;9.736;2023-04-03T10:49:32;8.07;;;2.40;;
51489;SDS011;57752;53.574;9.736;2023-04-03T10:54:39;7.97;;;2.20;;
51489;SDS011;57752;53.574;9.736;2023-04-03T10:59:45;6.05;;;1.90;;
51489;SDS011;57752;53.574;9.736;2023-04-03T11:04:48;7.47;;;2.15;;
51489;SDS011;57752;53.574;9.736;2023-04-03T11:09:55;8.70;;;2.30;;
51489;SDS011;57752;53.574;9.736;2023-04-03T11:14:56;8.63;;;2.30;;
51489;SDS011;57752;53.574;9.736;2023-04-03T11:25:19;8.32;;;2.10;;
51489;SDS011;57752;53.574;9.736;2023-04-03T11:30:28;8.95;;;2.30;;
51489;SDS011;57752;53.574;9.736;2023-04-03T11:35:30;20.58;;;3.35;;
51489;SDS011;57752;53.574;9.736;2023-04-03T11:40:31;7.65;;;2.30;;
51489;SDS011;57752;53.574;9.736;2023-04-03T11:45:34;9.05;;;2.00;;
51489;SDS011;57752;53.574;9.736;2023-04-03T11:55:43;8.65;;;2.13;;
51489;SDS011;57752;53.574;9.736;2023-04-03T12:05:43;9.25;;;2.30;;
51489;SDS011;57752;53.574;9.736;2023-04-03T12:10:55;8.10;;;2.42;;
51489;SDS011;57752;53.574;9.736;2023-04-03T12:16:04;13.57;;;2.95;;
51489;SDS011;57752;53.574;9.736;2023-04-03T12:21:05;7.60;;;2.20;;
51489;SDS011;57752;53.574;9.736;2023-04-03T12:31:15;7.38;;;2.30;;
51489;SDS011;57752;53.574;9.736;2023-04-03T12:36:26;10.10;;;1.98;;
51489;SDS011;57752;53.574;9.736;2023-04-03T12:41:36;12.18;;;2.30;;
51489;SDS011;57752;53.574;9.736;2023-04-03T12:46:38;10.98;;;2.80;;
51489;SDS011;57752;53.574;9.736;2023-04-03T12:51:43;10.57;;;2.63;;
51489;SDS011;57752;53.574;9.736;2023-04-03T12:56:44;14.27;;;3.20;;
51489;SDS011;57752;53.574;9.736;2023-04-03T13:01:52;10.02;;;2.38;;
51489;SDS011;57752;53.574;9.736;2023-04-03T13:06:53;9.35;;;2.30;;
51489;SDS011;57752;53.574;9.736;2023-04-03T13:16:57;7.88;;;2.03;;
51489;SDS011;57752;53.574;9.736;2023-04-03T13:26:58;9.65;;;2.50;;
51489;SDS011;57752;53.574;9.736;2023-04-03T13:31:59;9.93;;;2.20;;
51489;SDS011;57752;53.574;9.736;2023-04-03T13:37:00;8.85;;;2.08;;
51489;SDS011;57752;53.574;9.736;2023-04-03T13:42:01;9.00;;;2.30;;
51489;SDS011;57752;53.574;9.736;2023-04-03T13:47:18;8.32;;;2.10;;
51489;SDS011;57752;53.574;9.736;2023-04-03T13:53:02;10.35;;;2.30;;
51489;SDS011;57752;53.574;9.736;2023-04-03T13:57:50;8.40;;;2.20;;
51489;SDS011;57752;53.574;9.736;2023-04-03T14:02:50;6.88;;;2.03;;
51489;SDS011;57752;53.574;9.736;2023-04-03T14:07:53;11.10;;;2.88;;
51489;SDS011;57752;53.574;9.736;2023-04-03T14:12:54;8.55;;;2.15;;
51489;SDS011;57752;53.574;9.736;2023-04-03T14:17:55;7.80;;;2.22;;
51489;SDS011;57752;53.574;9.736;2023-04-03T14:22:56;8.43;;;2.40;;
51489;SDS011;57752;53.574;9.736;2023-04-03T14:27:56;9.48;;;2.25;;
51489;SDS011;57752;53.574;9.736;2023-04-03T14:32:58;10.65;;;2.50;;
51489;SDS011;57752;53.574;9.736;2023-04-03T14:37:58;8.10;;;2.10;;
51489;SDS011;57752;53.574;9.736;2023-04-03T14:42:58;8.95;;;2.40;;
51489;SDS011;57752;53.574;9.736;2023-04-03T14:47:59;8.23;;;2.47;;
51489;SDS011;57752;53.574;9.736;2023-04-03T14:52:59;11.17;;;2.70;;
51489;SDS011;57752;53.574;9.736;2023-04-03T14:58:00;10.15;;;2.92;;
51489;SDS011;57752;53.574;9.736;2023-04-03T15:03:00;8.32;;;2.30;;
51489;SDS011;57752;53.574;9.736;2023-04-03T15:08:00;8.93;;;2.40;;
51489;SDS011;57752;53.574;9.736;2023-04-03T15:13:00;9.80;;;2.60;;
51489;SDS011;57752;53.574;9.736;2023-04-03T15:18:00;10.68;;;2.88;;
51489;SDS011;57752;53.574;9.736;2023-04-03T15:23:01;8.95;;;2.38;;
51489;SDS011;57752;53.574;9.736;2023-04-03T15:28:01;9.02;;;2.33;;
51489;SDS011;57752;53.574;9.736;2023-04-03T15:33:01;10.75;;;2.40;;
51489;SDS011;57752;53.574;9.736;2023-04-03T15:38:01;10.13;;;2.47;;
51489;SDS011;57752;53.574;9.736;2023-04-03T15:43:02;9.32;;;2.40;;
51489;SDS011;57752;53.574;9.736;2023-04-03T15:48:03;9.93;;;2.58;;
51489;SDS011;57752;53.574;9.736;2023-04-03T15:53:03;9.57;;;2.30;;
51489;SDS011;57752;53.574;9.736;2023-04-03T15:58:04;7.88;;;2.33;;
51489;SDS011;57752;53.574;9.736;2023-04-03T16:03:05;8.15;;;2.33;;
51489;SDS011;57752;53.574;9.736;2023-04-03T16:08:07;8.98;;;2.40;;
51489;SDS011;57752;53.574;9.736;2023-04-03T16:13:07;9.85;;;2.42;;
51489;SDS011;57752;53.574;9.736;2023-04-03T16:18:08;9.68;;;2.55;;
51489;SDS011;57752;53.574;9.736;2023-04-03T16:23:08;7.78;;;2.55;;
51489;SDS011;57752;53.574;9.736;2023-04-03T16:28:08;11.63;;;2.55;;
51489;SDS011;57752;53.574;9.736;2023-04-03T16:33:09;12.90;;;2.80;;
51489;SDS011;57752;53.574;9.736;2023-04-03T16:38:09;11.57;;;2.65;;
51489;SDS011;57752;53.574;9.736;2023-04-03T16:43:10;11.25;;;2.40;;
51489;SDS011;57752;53.574;9.736;2023-04-03T16:48:10;9.30;;;2.67;;
51489;SDS011;57752;53.574;9.736;2023-04-03T16:53:10;9.00;;;2.60;;
51489;SDS011;57752;53.574;9.736;2023-04-03T16:58:10;9.05;;;2.60;;
51489;SDS011;57752;53.574;9.736;2023-04-03T17:03:10;11.80;;;2.80;;
51489;SDS011;57752;53.574;9.736;2023-04-03T17:08:11;9.98;;;2.50;;
51489;SDS011;57752;53.574;9.736;2023-04-03T17:13:11;9.95;;;2.40;;
51489;SDS011;57752;53.574;9.736;2023-04-03T17:18:11;8.98;;;2.20;;
51489;SDS011;57752;53.574;9.736;2023-04-03T17:23:11;8.52;;;2.47;;
51489;SDS011;57752;53.574;9.736;2023-04-03T17:28:11;12.73;;;2.78;;
51489;SDS011;57752;53.574;9.736;2023-04-03T17:33:11;9.32;;;2.60;;
51489;SDS011;57752;53.574;9.736;2023-04-03T17:38:11;9.07;;;2.55;;
51489;SDS011;57752;53.574;9.736;2023-04-03T17:43:12;9.35;;;2.65;;
51489;SDS011;57752;53.574;9.736;2023-04-03T17:48:12;11.43;;;2.97;;
51489;SDS011;57752;53.574;9.736;2023-04-03T17:53:12;9.73;;;3.15;;
51489;SDS011;57752;53.574;9.736;2023-04-03T17:58:14;9.75;;;2.60;;
51489;SDS011;57752;53.574;9.736;2023-04-03T18:03:15;15.13;;;3.13;;
51489;SDS011;57752;53.574;9.736;2023-04-03T18:08:15;11.32;;;3.03;;
51489;SDS011;57752;53.574;9.736;2023-04-03T18:13:16;10.75;;;2.95;;
51489;SDS011;57752;53.574;9.736;2023-04-03T18:18:16;13.10;;;3.05;;
51489;SDS011;57752;53.574;9.736;2023-04-03T18:23:16;9.10;;;2.53;;
51489;SDS011;57752;53.574;9.736;2023-04-03T18:28:16;10.65;;;2.90;;
51489;SDS011;57752;53.574;9.736;2023-04-03T18:33:17;12.05;;;2.88;;
51489;SDS011;57752;53.574;9.736;2023-04-03T18:38:17;8.35;;;2.60;;
51489;SDS011;57752;53.574;9.736;2023-04-03T18:43:17;10.00;;;2.72;;
51489;SDS011;57752;53.574;9.736;2023-04-03T18:48:17;9.88;;;2.97;;
51489;SDS011;57752;53.574;9.736;2023-04-03T18:53:18;14.77;;;3.60;;
51489;SDS011;57752;53.574;9.736;2023-04-03T18:58:18;9.00;;;2.60;;
51489;SDS011;57752;53.574;9.736;2023-04-03T19:03:18;8.32;;;2.90;;
51489;SDS011;57752;53.574;9.736;2023-04-03T19:08:18;12.02;;;3.20;;
51489;SDS011;57752;53.574;9.736;2023-04-03T19:13:18;11.45;;;2.80;;
51489;SDS011;57752;53.574;9.736;2023-04-03T19:18:19;9.75;;;2.80;;
51489;SDS011;57752;53.574;9.736;2023-04-03T19:23:19;8.43;;;2.60;;
51489;SDS011;57752;53.574;9.736;2023-04-03T19:28:19;11.73;;;2.90;;
51489;SDS011;57752;53.574;9.736;2023-04-03T19:33:19;9.20;;;2.60;;
51489;SDS011;57752;53.574;9.736;2023-04-03T19:38:20;10.23;;;2.85;;
51489;SDS011;57752;53.574;9.736;2023-04-03T19:43:20;11.40;;;3.05;;
51489;SDS011;57752;53.574;9.736;2023-04-03T19:48:20;12.77;;;3.03;;
51489;SDS011;57752;53.574;9.736;2023-04-03T19:53:20;9.48;;;2.70;;
51489;SDS011;57752;53.574;9.736;2023-04-03T19:58:23;14.98;;;3.53;;
51489;SDS011;57752;53.574;9.736;2023-04-03T20:03:26;12.35;;;2.97;;
51489;SDS011;57752;53.574;9.736;2023-04-03T20:08:26;9.90;;;2.65;;
51489;SDS011;57752;53.574;9.736;2023-04-03T20:13:27;11.15;;;3.30;;
51489;SDS011;57752;53.574;9.736;2023-04-03T20:18:27;10.25;;;3.42;;
51489;SDS011;57752;53.574;9.736;2023-04-03T20:23:27;9.85;;;3.63;;
51489;SDS011;57752;53.574;9.736;2023-04-03T20:28:28;15.10;;;4.88;;
51489;SDS011;57752;53.574;9.736;2023-04-03T20:33:28;10.65;;;3.45;;
51489;SDS011;57752;53.574;9.736;2023-04-03T20:38:28;15.77;;;3.90;;
51489;SDS011;57752;53.574;9.736;2023-04-03T20:43:29;13.50;;;4.88;;
51489;SDS011;57752;53.574;9.736;2023-04-03T20:48:29;15.25;;;5.10;;
51489;SDS011;57752;53.574;9.736;2023-04-03T20:53:30;15.13;;;5.70;;
51489;SDS011;57752;53.574;9.736;2023-04-03T20:58:30;13.77;;;4.93;;
51489;SDS011;57752;53.574;9.736;2023-04-03T21:03:32;13.77;;;4.37;;
51489;SDS011;57752;53.574;9.736;2023-04-03T21:19:18;12.52;;;4.00;;
51489;SDS011;57752;53.574;9.736;2023-04-03T21:24:19;12.32;;;4.03;;
51489;SDS011;57752;53.574;9.736;2023-04-03T21:29:19;11.32;;;3.45;;
51489;SDS011;57752;53.574;9.736;2023-04-03T21:34:20;11.18;;;3.63;;
51489;SDS011;57752;53.574;9.736;2023-04-03T21:39:20;11.98;;;3.83;;
51489;SDS011;57752;53.574;9.736;2023-04-03T21:44:21;10.30;;;3.47;;
51489;SDS011;57752;53.574;9.736;2023-04-03T21:49:22;11.18;;;3.70;;
51489;SDS011;57752;53.574;9.736;2023-04-03T21:54:23;12.80;;;4.13;;
51489;SDS011;57752;53.574;9.736;2023-04-03T21:59:23;16.00;;;4.13;;
51489;SDS011;57752;53.574;9.736;2023-04-03T22:04:23;10.50;;;3.67;;
51489;SDS011;57752;53.574;9.736;2023-04-03T22:09:25;10.35;;;3.60;;
51489;SDS011;57752;53.574;9.736;2023-04-03T22:14:25;14.45;;;4.13;;
51489;SDS011;57752;53.574;9.736;2023-04-03T22:19:26;13.57;;;3.92;;
51489;SDS011;57752;53.574;9.736;2023-04-03T22:24:26;13.05;;;4.28;;
51489;SDS011;57752;53.574;9.736;2023-04-03T22:29:27;11.55;;;3.72;;
51489;SDS011;57752;53.574;9.736;2023-04-03T22:34:27;14.65;;;3.97;;
51489;SDS011;57752;53.574;9.736;2023-04-03T22:39:27;13.75;;;3.70;;
51489;SDS011;57752;53.574;9.736;2023-04-03T22:44:27;10.65;;;3.92;;
51489;SDS011;57752;53.574;9.736;2023-04-03T22:49:27;12.68;;;3.83;;
51489;SDS011;57752;53.574;9.736;2023-04-03T22:54:27;11.18;;;3.88;;
51489;SDS011;57752;53.574;9.736;2023-04-03T22:59:28;9.75;;;3.33;;
51489;SDS011;57752;53.574;9.736;2023-04-03T23:04:28;13.32;;;3.72;;
51489;SDS011;57752;53.574;9.736;2023-04-03T23:09:28;13.27;;;3.70;;
51489;SDS011;57752;53.574;9.736;2023-04-03T23:14:28;12.63;;;4.25;;
51489;SDS011;57752;53.574;9.736;2023-04-03T23:19:28;10.40;;;3.58;;
51489;SDS011;57752;53.574;9.736;2023-04-03T23:24:28;13.10;;;4.40;;
51489;SDS011;57752;53.574;9.736;2023-04-03T23:29:29;11.70;;;3.83;;
51489;SDS011;57752;53.574;9.736;2023-04-03T23:34:29;10.68;;;3.90;;
51489;SDS011;57752;53.574;9.736;2023-04-03T23:39:29;14.38;;;3.65;;
51489;SDS011;57752;53.574;9.736;2023-04-03T23:44:30;12.13;;;4.30;;
51489;SDS011;57752;53.574;9.736;2023-04-03T23:49:30;11.88;;;3.92;;
51489;SDS011;57752;53.574;9.736;2023-04-03T23:54:31;11.82;;;4.05;;
51489;SDS011;57752;53.574;9.736;2023-04-03T23:59:31;12.63;;;3.72;;
